Columbus, Ohio
Traffic Map
Current Weather Conditions
Columbus, Ohio
Overcast
Overcast
76°
Feels Like: 76°
Wind Chill: 76° Ceiling: 5500
Heat Index: 76° Visibility: 10mi
Dew Point: 68° Wind: 5mph
Humidity: 76% Direction: 70° (ENE)
Pressure: 29.94in Gusts: 0mph
Raw Report DataKCMH 300251Z 07004KT 10SM SCT037 BKN055 OVC140 24/20 A2994 RMK AO2 SLP132 T02440200 52010
Traffic Incident Summary
Active as of:
Severity:
Category:
InformationThere was an issue retrieving the traffic information for this location. Please try a different location or try again shortly.
Advertisements
Track Severe Weather on mobile